Time;durP1;ratioP1;P1;durP2;ratioP2;P2;SDS_P1;SDS_P2;PMS_P1;PMS_P2;Temp;Humidity;BMP_temperature;BMP_pressure;BME280_temperature;BME280_humidity;BME280_pressure;Samples;Min_cycle;Max_cycle;Signal;HPM_P1;HPM_P2
2021/05/07 00:02:23;;;;;;;9.68;4.20;;;;;;;2.54;70.10;92610.09;1807291;78;21204;-78
2021/05/07 00:04:52;;;;;;;7.10;4.15;;;;;;;2.47;70.56;92612.68;1827337;77;21356;-77
2021/05/07 00:07:19;;;;;;;7.17;3.85;;;;;;;2.39;70.72;92611.05;1828078;77;21190;-81
2021/05/07 00:09:47;;;;;;;5.65;3.77;;;;;;;2.33;71.12;92607.91;1813772;78;21191;-77
2021/05/07 00:12:15;;;;;;;5.03;3.30;;;;;;;2.31;71.80;92609.41;1823271;77;21185;-81
2021/05/07 00:14:44;;;;;;;7.22;4.10;;;;;;;2.32;72.03;92617.08;1847017;77;21019;-75
2021/05/07 00:17:12;;;;;;;9.80;5.10;;;;;;;2.33;71.74;92606.57;1850002;77;21637;-76
2021/05/07 00:19:40;;;;;;;12.85;6.12;;;;;;;2.31;71.61;92607.49;1815061;79;21169;-81
2021/05/07 00:22:08;;;;;;;9.58;5.60;;;;;;;2.30;71.60;92601.92;1839823;77;21458;-78
2021/05/07 00:24:36;;;;;;;10.25;5.47;;;;;;;2.31;71.80;92593.31;1846179;77;21134;-80
2021/05/07 00:27:04;;;;;;;8.83;5.15;;;;;;;2.31;71.94;92584.69;1846276;77;21171;-78
2021/05/07 00:29:31;;;;;;;6.85;4.42;;;;;;;2.29;72.04;92578.13;1841981;77;21775;-80
2021/05/07 00:31:59;;;;;;;6.85;4.72;;;;;;;2.30;72.56;92587.74;1803877;78;21171;-79
2021/05/07 00:34:27;;;;;;;9.20;5.25;;;;;;;2.31;72.43;92579.89;1841004;77;21604;-82
2021/05/07 00:36:54;;;;;;;11.63;5.20;;;;;;;2.29;72.18;92574.88;1846688;77;21157;-81
2021/05/07 00:39:22;;;;;;;13.13;5.80;;;;;;;2.26;72.26;92571.59;1846699;77;21154;-82
2021/05/07 00:41:49;;;;;;;12.03;5.78;;;;;;;2.19;72.21;92576.30;1846120;77;22244;-83
2021/05/07 00:44:17;;;;;;;10.53;6.53;;;;;;;2.17;72.27;92573.19;1849483;77;21106;-75
2021/05/07 00:46:44;;;;;;;12.68;5.25;;;;;;;2.15;72.45;92576.81;1850906;77;21186;-77
2021/05/07 00:49:13;;;;;;;12.30;5.65;;;;;;;2.12;72.84;92560.67;1815209;77;21204;-84
2021/05/07 00:51:40;;;;;;;12.43;6.10;;;;;;;2.09;73.07;92560.82;1825241;77;21176;-83
2021/05/07 00:54:07;;;;;;;12.43;5.87;;;;;;;2.10;73.31;92558.33;1846042;77;21234;-80
2021/05/07 00:56:36;;;;;;;11.90;5.58;;;;;;;2.08;73.55;92559.85;1843927;77;21177;-83
2021/05/07 00:59:04;;;;;;;12.43;5.92;;;;;;;2.02;73.61;92562.05;1803586;78;21432;-75
2021/05/07 01:01:32;;;;;;;13.43;6.00;;;;;;;1.98;73.86;92563.91;1840087;77;21180;-81
2021/05/07 01:04:00;;;;;;;13.93;8.18;;;;;;;1.94;74.06;92559.08;1819493;77;21211;-80
2021/05/07 01:06:30;;;;;;;13.62;6.40;;;;;;;1.90;73.97;92560.93;1822070;77;21421;-81
2021/05/07 01:08:59;;;;;;;10.63;5.83;;;;;;;1.84;74.12;92547.62;1846837;76;21165;-85
2021/05/07 01:11:27;;;;;;;9.35;5.25;;;;;;;1.83;74.77;92537.47;1848216;77;21130;-76
2021/05/07 01:13:55;;;;;;;7.35;4.80;;;;;;;1.82;74.91;92537.84;1785460;78;21156;-77
2021/05/07 01:16:22;;;;;;;10.03;6.00;;;;;;;1.78;74.86;92555.21;1841708;77;21187;-81
2021/05/07 01:18:50;;;;;;;12.07;7.20;;;;;;;1.74;75.04;92554.95;1846535;77;21791;-82
2021/05/07 01:21:19;;;;;;;10.28;6.05;;;;;;;1.67;74.91;92556.39;1832046;77;21187;-81
2021/05/07 01:23:46;;;;;;;13.32;6.17;;;;;;;1.61;75.11;92555.70;1803378;78;21374;-81
2021/05/07 01:26:14;;;;;;;11.68;6.28;;;;;;;1.54;75.31;92551.57;1771288;79;21207;-81
2021/05/07 01:28:41;;;;;;;8.03;5.37;;;;;;;1.48;75.53;92554.36;1840959;77;21192;-82
2021/05/07 01:31:09;;;;;;;12.70;5.80;;;;;;;1.41;75.84;92555.78;1818514;77;21366;-80
2021/05/07 01:33:38;;;;;;;13.65;5.95;;;;;;;1.37;75.85;92559.55;1820979;77;21188;-77
2021/05/07 01:36:06;;;;;;;11.60;6.30;;;;;;;1.33;76.15;92559.48;1839134;77;21224;-80
2021/05/07 01:38:36;;;;;;;13.78;6.03;;;;;;;1.31;76.39;92557.72;1773967;79;21152;-83
2021/05/07 01:41:05;;;;;;;11.65;6.53;;;;;;;1.31;76.86;92559.05;1848985;77;21205;-78
2021/05/07 01:43:35;;;;;;;13.15;7.12;;;;;;;1.37;76.95;92559.55;1850286;77;21357;-77
2021/05/07 01:46:04;;;;;;;12.88;6.42;;;;;;;1.42;76.78;92546.61;1847440;77;21194;-81
2021/05/07 01:48:32;;;;;;;8.15;5.00;;;;;;;1.45;76.54;92539.77;1846333;77;21110;-82
2021/05/07 01:51:00;;;;;;;10.72;5.00;;;;;;;1.46;76.57;92539.40;1846202;77;21146;-83
2021/05/07 01:53:29;;;;;;;9.18;5.22;;;;;;;1.49;76.62;92531.22;1845787;77;21158;-82
2021/05/07 01:55:58;;;;;;;8.05;4.97;;;;;;;1.52;76.69;92526.48;1780468;78;21416;-78
2021/05/07 01:58:37;;;;;;;9.08;4.40;;;;;;;1.54;76.66;92528.23;1818475;78;21177;-80
2021/05/07 02:01:05;;;;;;;6.92;3.10;;;;;;;1.54;76.74;92532.25;1834587;78;21095;-82
2021/05/07 02:03:33;;;;;;;3.95;2.60;;;;;;;1.55;77.03;92531.70;1839057;77;21166;-80
2021/05/07 02:06:10;;;;;;;4.60;3.08;;;;;;;1.56;77.25;92527.88;1838636;77;21640;-80
2021/05/07 02:08:39;;;;;;;8.68;3.20;;;;;;;1.52;77.65;92510.98;1839531;78;21364;-77
2021/05/07 02:11:09;;;;;;;6.12;3.30;;;;;;;1.44;77.93;92510.10;1841904;78;21146;-75
2021/05/07 02:13:38;;;;;;;4.72;2.60;;;;;;;1.43;77.97;92516.03;1808647;78;21216;-79
2021/05/07 02:16:05;;;;;;;7.85;3.47;;;;;;;1.43;78.13;92522.73;1817502;78;21145;-79
2021/05/07 02:18:33;;;;;;;6.87;3.87;;;;;;;1.45;78.61;92529.05;1837590;77;21623;-82
2021/05/07 02:21:03;;;;;;;6.95;4.05;;;;;;;1.48;78.48;92527.00;1836159;77;22114;-79
2021/05/07 02:23:32;;;;;;;8.28;4.72;;;;;;;1.51;78.48;92529.54;1796952;79;21239;-79
2021/05/07 02:26:00;;;;;;;11.48;5.75;;;;;;;1.53;78.09;92525.92;1795949;78;21631;-85
2021/05/07 02:28:32;;;;;;;9.58;5.65;;;;;;;1.58;77.65;92516.22;1823038;78;21176;-79
2021/05/07 02:30:59;;;;;;;6.97;4.87;;;;;;;1.62;77.33;92509.03;1819959;77;21188;-82
2021/05/07 02:33:28;;;;;;;12.25;5.53;;;;;;;1.65;77.33;92520.35;1803791;78;21665;-78
2021/05/07 02:35:56;;;;;;;6.87;4.15;;;;;;;1.66;77.30;92517.33;1839011;78;21177;-79
2021/05/07 02:38:23;;;;;;;5.33;4.08;;;;;;;1.67;77.30;92519.44;1842100;77;21190;-73
2021/05/07 02:40:51;;;;;;;4.67;3.02;;;;;;;1.65;77.44;92531.84;1811343;78;21184;-84
2021/05/07 02:43:19;;;;;;;4.05;3.25;;;;;;;1.65;77.47;92535.09;1818658;78;21158;-76
2021/05/07 02:45:46;;;;;;;6.35;3.77;;;;;;;1.58;77.20;92517.02;1837559;78;21162;-80
2021/05/07 02:48:14;;;;;;;6.50;3.47;;;;;;;1.51;77.33;92522.27;1838203;78;21150;-80
2021/05/07 02:50:41;;;;;;;8.68;4.30;;;;;;;1.46;77.42;92521.98;1838315;78;21153;-81
2021/05/07 02:53:10;;;;;;;9.40;4.05;;;;;;;1.44;77.45;92520.82;1838796;77;21095;-79
2021/05/07 02:55:38;;;;;;;6.85;4.05;;;;;;;1.40;77.60;92514.06;1811395;78;21176;-79
2021/05/07 02:58:05;;;;;;;6.92;3.75;;;;;;;1.38;77.79;92514.20;1796922;79;22087;-81
2021/05/07 03:00:33;;;;;;;7.60;3.85;;;;;;;1.35;77.82;92514.92;1773688;79;21345;-84
2021/05/07 03:03:01;;;;;;;6.53;3.60;;;;;;;1.30;77.98;92509.88;1806328;79;21533;-79
2021/05/07 03:05:28;;;;;;;5.72;3.67;;;;;;;1.28;78.27;92513.46;1838897;78;21165;-76
2021/05/07 03:07:57;;;;;;;5.10;3.45;;;;;;;1.25;78.48;92508.28;1842851;77;20988;-80
2021/05/07 03:10:25;;;;;;;8.73;4.33;;;;;;;1.25;78.45;92502.92;1841026;78;21338;-83
2021/05/07 03:12:52;;;;;;;5.70;3.83;;;;;;;1.27;78.45;92497.97;1827419;78;21195;-82
2021/05/07 03:15:19;;;;;;;6.83;4.15;;;;;;;1.27;78.52;92497.19;1797941;78;21176;-80
2021/05/07 03:17:49;;;;;;;5.67;3.27;;;;;;;1.23;78.65;92490.44;1839424;78;21177;-80
2021/05/07 03:20:16;;;;;;;6.85;3.27;;;;;;;1.24;78.85;92484.52;1838119;77;21166;-81
2021/05/07 03:22:44;;;;;;;5.05;3.60;;;;;;;1.17;78.84;92485.97;1812912;78;21365;-80
2021/05/07 03:25:13;;;;;;;4.70;3.85;;;;;;;1.10;79.04;92481.06;1812107;78;21510;-84
2021/05/07 03:27:41;;;;;;;5.05;2.55;;;;;;;1.10;79.44;92469.78;1838355;77;21154;-80
2021/05/07 03:30:12;;;;;;;3.92;2.62;;;;;;;1.15;79.84;92466.80;1837944;78;21638;-81
2021/05/07 03:32:39;;;;;;;5.12;3.45;;;;;;;1.15;79.63;92470.05;1837446;77;21780;-78
2021/05/07 03:35:10;;;;;;;5.17;3.40;;;;;;;1.13;79.48;92462.37;1840536;78;21581;-75
2021/05/07 03:37:38;;;;;;;6.70;3.50;;;;;;;1.13;79.59;92454.89;1842513;78;21167;-74
2021/05/07 03:40:07;;;;;;;4.83;3.58;;;;;;;1.15;79.73;92465.45;1838300;78;21194;-82
2021/05/07 03:42:34;;;;;;;3.75;2.58;;;;;;;1.14;79.77;92461.23;1838220;77;21162;-82
2021/05/07 03:45:03;;;;;;;6.03;4.12;;;;;;;1.15;80.17;92441.36;1838696;78;21130;-78
2021/05/07 03:47:31;;;;;;;4.62;2.58;;;;;;;1.13;80.26;92443.63;1839195;77;21227;-80
2021/05/07 03:49:59;;;;;;;5.03;3.17;;;;;;;1.16;80.56;92435.43;1810558;78;21492;-81
2021/05/07 03:52:26;;;;;;;4.72;1.90;;;;;;;1.21;80.64;92439.16;1813241;78;21180;-79
2021/05/07 03:54:53;;;;;;;3.05;0.93;;;;;;;1.25;80.91;92443.23;1830125;78;21076;-84
2021/05/07 03:57:25;;;;;;;1.30;1.00;;;;;;;1.30;80.91;92443.69;1795772;79;21164;-83
2021/05/07 03:59:54;;;;;;;0.70;0.55;;;;;;;1.35;80.86;92443.36;1810175;79;21231;-82
2021/05/07 04:02:23;;;;;;;1.62;1.20;;;;;;;1.39;81.02;92453.59;1842517;77;21158;-76
2021/05/07 04:04:53;;;;;;;3.00;1.05;;;;;;;1.46;81.34;92447.55;1853324;77;21596;-74
2021/05/07 04:07:21;;;;;;;4.33;2.25;;;;;;;1.55;81.35;92462.80;1843443;77;21645;-79
2021/05/07 04:09:54;;;;;;;4.75;3.25;;;;;;;1.63;80.69;92454.30;1838941;77;21620;-79
2021/05/07 04:12:23;;;;;;;6.10;3.72;;;;;;;1.68;79.82;92449.38;1811979;78;21410;-81
2021/05/07 04:14:49;;;;;;;5.33;3.35;;;;;;;1.84;79.67;92456.48;1797917;77;21499;-83
2021/05/07 04:17:16;;;;;;;3.42;2.80;;;;;;;1.98;78.49;92436.55;1769395;80;21195;-78
2021/05/07 04:19:45;;;;;;;3.60;2.75;;;;;;;2.01;78.10;92417.06;1784782;80;21168;-79
2021/05/07 04:22:12;;;;;;;4.55;2.80;;;;;;;1.98;78.22;92435.78;1775682;80;21651;-78
2021/05/07 04:24:40;;;;;;;4.03;2.40;;;;;;;2.04;78.61;92434.34;1776618;79;21443;-83
2021/05/07 04:27:07;;;;;;;6.78;2.95;;;;;;;2.25;79.04;92443.19;1808972;79;21610;-84
2021/05/07 04:29:36;;;;;;;7.55;4.12;;;;;;;2.50;78.54;92450.94;1833318;78;21497;-80
2021/05/07 04:32:04;;;;;;;4.92;3.15;;;;;;;2.82;77.18;92449.94;1840671;77;21115;-75
2021/05/07 04:34:32;;;;;;;4.40;3.45;;;;;;;3.19;76.63;92448.30;1841988;78;21159;-76
2021/05/07 04:36:59;;;;;;;5.10;2.20;;;;;;;3.51;75.29;92435.88;1838774;77;21737;-80
2021/05/07 04:39:27;;;;;;;12.73;5.33;;;;;;;3.57;74.97;92443.80;1837600;78;21823;-80
2021/05/07 04:41:54;;;;;;;5.75;2.40;;;;;;;3.46;74.94;92441.62;1798744;77;21160;-81
2021/05/07 04:44:22;;;;;;;2.72;1.35;;;;;;;3.32;74.84;92432.11;1824848;78;21176;-81
2021/05/07 04:46:50;;;;;;;23.22;14.50;;;;;;;3.22;75.09;92440.85;1838626;77;21170;-80
2021/05/07 04:49:17;;;;;;;6.42;2.20;;;;;;;3.23;75.51;92443.16;1827535;78;21364;-78
2021/05/07 04:51:44;;;;;;;4.20;2.85;;;;;;;3.31;75.17;92434.03;1795791;77;21215;-80
2021/05/07 04:54:12;;;;;;;11.95;8.28;;;;;;;3.35;74.63;92425.99;1837956;77;21125;-82
2021/05/07 04:56:40;;;;;;;1.82;1.45;;;;;;;3.27;75.42;92425.17;1838922;77;21198;-79
2021/05/07 04:59:07;;;;;;;4.22;3.75;;;;;;;3.30;75.89;92427.09;1815146;77;21157;-79
2021/05/07 05:01:34;;;;;;;6.85;4.72;;;;;;;3.36;75.48;92413.52;1813059;78;22094;-75
2021/05/07 05:04:03;;;;;;;6.08;4.05;;;;;;;3.47;75.16;92414.94;1841312;78;21181;-79
2021/05/07 05:06:31;;;;;;;10.65;2.00;;;;;;;3.61;74.52;92421.75;1837096;78;21171;-78
2021/05/07 05:08:58;;;;;;;3.00;1.60;;;;;;;3.71;74.07;92402.77;1837555;78;21158;-81
2021/05/07 05:11:28;;;;;;;1.42;1.20;;;;;;;3.80;73.90;92388.98;1837689;77;21150;-80
2021/05/07 05:13:55;;;;;;;3.60;2.27;;;;;;;3.90;73.12;92393.06;1838285;78;21869;-77
2021/05/07 05:16:22;;;;;;;2.72;1.82;;;;;;;4.04;72.11;92405.05;1836971;77;21485;-79
2021/05/07 05:18:50;;;;;;;3.90;2.83;;;;;;;4.27;71.72;92383.22;1837500;78;21475;-80
2021/05/07 05:21:17;;;;;;;3.33;2.17;;;;;;;4.69;74.05;92393.30;1822632;77;21237;-79
2021/05/07 05:23:49;;;;;;;2.60;1.87;;;;;;;5.06;72.02;92375.44;1847608;77;21178;-78
2021/05/07 05:26:16;;;;;;;3.08;2.12;;;;;;;5.40;68.49;92375.61;1793517;79;21288;-79
2021/05/07 05:28:45;;;;;;;2.85;2.12;;;;;;;5.99;70.24;92365.86;1804738;78;21232;-76
2021/05/07 05:31:14;;;;;;;2.52;1.55;;;;;;;6.61;67.68;92369.03;1841067;78;21394;-77
2021/05/07 05:33:41;;;;;;;3.72;1.95;;;;;;;7.03;62.73;92336.33;1838098;78;21162;-84
2021/05/07 05:36:12;;;;;;;2.45;1.87;;;;;;;7.55;60.02;92336.81;1798455;78;21535;-80
2021/05/07 05:38:39;;;;;;;3.90;1.92;;;;;;;8.30;57.20;92323.78;1795588;78;21211;-81
2021/05/07 05:41:07;;;;;;;3.77;1.50;;;;;;;9.12;54.92;92332.72;1814187;78;21192;-78
2021/05/07 05:43:35;;;;;;;2.42;1.60;;;;;;;9.75;52.05;92327.98;1836616;78;21171;-81
2021/05/07 05:46:04;;;;;;;2.27;1.55;;;;;;;10.20;50.83;92331.00;1836477;78;21166;-78
2021/05/07 05:48:32;;;;;;;6.42;2.17;;;;;;;10.56;52.43;92333.76;1836886;78;21174;-77
2021/05/07 05:50:59;;;;;;;3.62;2.50;;;;;;;11.16;52.32;92324.84;1836699;77;21351;-78
2021/05/07 05:53:27;;;;;;;2.42;1.70;;;;;;;11.96;50.41;92328.54;1812820;78;21219;-80
2021/05/07 05:55:55;;;;;;;2.80;1.98;;;;;;;12.63;46.32;92324.50;1809481;78;21181;-79
2021/05/07 05:58:22;;;;;;;3.05;1.87;;;;;;;12.86;45.42;92337.10;1840653;77;21152;-73
2021/05/07 06:00:52;;;;;;;2.75;2.10;;;;;;;12.92;44.51;92316.09;1841140;78;21174;-78
2021/05/07 06:03:20;;;;;;;2.37;1.90;;;;;;;13.09;44.70;92320.25;1799819;78;22377;-80
2021/05/07 06:05:49;;;;;;;2.25;1.85;;;;;;;13.23;43.75;92322.54;1824406;78;21176;-81
2021/05/07 06:08:16;;;;;;;3.12;1.80;;;;;;;13.54;44.52;92330.93;1818152;78;21176;-81
2021/05/07 06:11:04;;;;;;;5.97;1.55;;;;;;;13.88;43.12;92341.72;1795337;78;21183;-81
2021/05/07 06:13:34;;;;;;;2.60;1.57;;;;;;;13.90;42.79;92342.64;1795534;79;21267;-81
2021/05/07 06:16:02;;;;;;;2.08;1.52;;;;;;;13.77;42.28;92343.44;1794542;78;21373;-78
2021/05/07 06:18:30;;;;;;;1.57;1.35;;;;;;;13.49;41.90;92330.70;1833455;78;22017;-80
2021/05/07 06:20:57;;;;;;;1.30;1.20;;;;;;;13.29;43.90;92327.63;1836405;77;21419;-84
2021/05/07 06:23:25;;;;;;;1.90;1.75;;;;;;;13.04;43.36;92318.80;1836335;77;21237;-80
2021/05/07 06:25:53;;;;;;;1.45;1.02;;;;;;;12.70;44.29;92356.27;1838693;78;21667;-78
2021/05/07 06:28:21;;;;;;;3.52;1.30;;;;;;;12.24;44.86;92336.53;1838869;78;22172;-79
2021/05/07 06:30:56;;;;;;;4.42;1.77;;;;;;;11.86;46.04;92340.47;1795120;79;21164;-79
2021/05/07 06:33:21;;;;;;;1.50;1.05;;;;;;;11.58;47.17;92365.06;1829330;78;21209;-83
2021/05/07 06:35:49;;;;;;;2.83;1.40;;;;;;;11.40;47.59;92377.16;1836264;77;21229;-79
2021/05/07 06:38:17;;;;;;;2.92;1.37;;;;;;;11.25;48.91;92384.13;1836439;77;21091;-77
2021/05/07 06:40:45;;;;;;;2.05;1.70;;;;;;;11.03;49.17;92372.20;1830437;78;21287;-79
2021/05/07 06:43:14;;;;;;;1.52;1.37;;;;;;;10.82;50.15;92363.30;1795157;79;21195;-79
2021/05/07 06:45:42;;;;;;;1.85;1.27;;;;;;;10.55;50.39;92375.72;1835791;78;21201;-78
2021/05/07 06:48:10;;;;;;;2.17;1.35;;;;;;;10.29;51.21;92367.89;1836135;77;21213;-81
2021/05/07 06:50:38;;;;;;;3.60;1.42;;;;;;;10.13;51.80;92358.30;1836202;77;22054;-80
2021/05/07 06:53:06;;;;;;;1.70;1.57;;;;;;;10.09;52.11;92373.30;1838134;77;22213;-77
2021/05/07 06:55:33;;;;;;;3.75;1.40;;;;;;;10.09;52.62;92369.23;1838971;78;21119;-78
2021/05/07 06:58:01;;;;;;;3.65;1.40;;;;;;;10.10;52.65;92349.62;1796888;79;21589;-79
2021/05/07 07:00:33;;;;;;;1.62;0.98;;;;;;;10.18;52.91;92359.16;1743152;80;21255;-80
2021/05/07 07:03:01;;;;;;;2.87;1.90;;;;;;;10.29;53.23;92349.47;1819841;77;21182;-84
2021/05/07 07:05:28;;;;;;;4.03;1.22;;;;;;;10.48;53.47;92348.69;1836535;78;21327;-82
2021/05/07 07:07:58;;;;;;;2.72;1.65;;;;;;;10.73;53.02;92350.13;1837080;77;21179;-81
2021/05/07 07:10:26;;;;;;;3.05;1.55;;;;;;;11.00;53.27;92361.56;1836215;77;21166;-80
2021/05/07 07:12:54;;;;;;;1.77;1.45;;;;;;;11.14;52.30;92368.64;1836591;77;21217;-83
2021/05/07 07:15:23;;;;;;;4.28;1.57;;;;;;;11.08;51.93;92349.92;1805408;78;21214;-82
2021/05/07 07:17:50;;;;;;;1.37;1.27;;;;;;;11.07;52.85;92364.72;1817226;78;21427;-81
2021/05/07 07:20:18;;;;;;;3.20;1.60;;;;;;;11.23;53.45;92365.33;1837573;77;21178;-80
2021/05/07 07:22:48;;;;;;;2.87;1.65;;;;;;;11.39;52.76;92359.28;1837466;76;21206;-80
2021/05/07 07:25:21;;;;;;;3.33;1.72;;;;;;;11.47;52.25;92363.98;1798554;78;21160;-82
2021/05/07 07:27:49;;;;;;;2.85;2.10;;;;;;;11.43;52.31;92363.28;1832475;78;21530;-82
2021/05/07 07:30:19;;;;;;;3.27;2.05;;;;;;;11.29;53.30;92366.36;1836575;77;21421;-80
2021/05/07 07:32:59;;;;;;;1.35;1.25;;;;;;;11.10;53.45;92359.20;1836324;77;21146;-78
2021/05/07 07:35:26;;;;;;;3.47;2.02;;;;;;;11.10;54.48;92361.92;1836598;77;21202;-81
2021/05/07 07:37:54;;;;;;;2.25;1.72;;;;;;;11.23;54.17;92374.84;1836655;78;21162;-81
2021/05/07 07:40:23;;;;;;;3.40;1.90;;;;;;;11.34;53.90;92363.12;1837100;78;21178;-78
2021/05/07 07:42:51;;;;;;;1.72;1.50;;;;;;;11.43;54.73;92381.76;1799924;78;21724;-78
2021/05/07 07:45:18;;;;;;;2.02;1.67;;;;;;;11.58;54.61;92352.80;1821853;77;21620;-80
2021/05/07 07:47:45;;;;;;;1.72;1.20;;;;;;;11.83;54.47;92350.26;1828169;77;22249;-80
2021/05/07 07:50:13;;;;;;;2.90;1.65;;;;;;;12.05;53.73;92367.42;1839311;77;21140;-76
2021/05/07 07:52:44;;;;;;;1.50;1.37;;;;;;;12.18;54.01;92369.58;1839918;78;21143;-76
2021/05/07 07:55:13;;;;;;;3.47;1.75;;;;;;;12.31;54.21;92369.05;1834978;77;21277;-78
2021/05/07 07:57:42;;;;;;;2.45;1.50;;;;;;;12.37;53.29;92377.45;1835149;78;21190;-81
2021/05/07 08:00:12;;;;;;;4.00;1.52;;;;;;;12.33;53.36;92379.50;1838072;77;21067;-83
2021/05/07 08:02:41;;;;;;;3.08;1.87;;;;;;;12.48;54.09;92389.42;1837448;78;21573;-79
2021/05/07 08:05:10;;;;;;;2.98;1.50;;;;;;;12.76;53.27;92374.23;1837072;77;21162;-81
2021/05/07 08:07:38;;;;;;;7.55;1.75;;;;;;;12.94;51.93;92366.30;1837654;78;22695;-78
2021/05/07 08:10:07;;;;;;;6.22;2.00;;;;;;;12.91;52.14;92369.89;1834944;78;21029;-82
2021/05/07 08:12:36;;;;;;;2.98;1.98;;;;;;;12.83;52.67;92375.39;1835757;77;21166;-77
2021/05/07 08:15:07;;;;;;;3.12;1.80;;;;;;;12.78;52.43;92386.83;1835390;78;21193;-80
2021/05/07 08:17:36;;;;;;;3.40;2.22;;;;;;;12.61;52.46;92384.78;1827574;78;21449;-77
2021/05/07 08:20:07;;;;;;;10.78;3.05;;;;;;;12.37;53.82;92370.05;1798562;78;21249;-76
2021/05/07 08:22:34;;;;;;;4.37;1.98;;;;;;;12.26;54.30;92372.88;1835366;78;21169;-76
2021/05/07 08:25:03;;;;;;;3.60;1.98;;;;;;;12.20;54.99;92377.34;1798894;78;21694;-76
2021/05/07 08:27:32;;;;;;;2.45;1.70;;;;;;;12.24;54.99;92348.03;1792994;79;21215;-80
2021/05/07 08:30:02;;;;;;;4.40;1.70;;;;;;;12.30;55.38;92346.32;1773264;79;21187;-85
2021/05/07 08:32:29;;;;;;;3.75;1.75;;;;;;;12.38;54.99;92344.31;1812157;78;21204;-82
2021/05/07 08:34:57;;;;;;;1.65;1.50;;;;;;;12.55;55.88;92330.60;1835656;77;22025;-82
2021/05/07 08:37:26;;;;;;;2.17;1.50;;;;;;;12.69;54.64;92350.66;1789679;77;21242;-83
2021/05/07 08:39:55;;;;;;;3.58;1.60;;;;;;;12.86;55.70;92358.14;1840928;77;21603;-81
2021/05/07 08:42:23;;;;;;;2.92;1.70;;;;;;;13.11;54.31;92362.26;1838766;77;21523;-79
2021/05/07 08:44:52;;;;;;;3.47;1.70;;;;;;;13.17;54.10;92337.92;1840539;77;22458;-80
2021/05/07 08:47:21;;;;;;;1.82;1.72;;;;;;;13.18;54.39;92363.25;1842679;77;21331;-84
2021/05/07 08:49:50;;;;;;;3.08;2.12;;;;;;;13.16;54.22;92362.91;1842247;77;21171;-80
2021/05/07 08:52:18;;;;;;;5.20;2.10;;;;;;;13.17;54.24;92350.20;1838786;77;21173;-83
2021/05/07 08:54:47;;;;;;;3.45;1.52;;;;;;;13.21;54.49;92359.05;1839072;77;21132;-82
2021/05/07 08:57:18;;;;;;;2.17;1.95;;;;;;;13.26;54.17;92368.08;1821254;77;21212;-87
2021/05/07 08:59:51;;;;;;;5.85;3.00;;;;;;;13.23;54.55;92349.05;1798047;78;21841;-83
2021/05/07 09:02:30;;;;;;;5.85;2.80;;;;;;;13.28;53.76;92343.09;1795521;77;21203;-82
2021/05/07 09:04:59;;;;;;;3.17;2.02;;;;;;;13.33;54.15;92336.46;1836669;78;21217;-80
2021/05/07 09:07:30;;;;;;;3.45;1.92;;;;;;;13.47;53.03;92337.22;1798229;77;21177;-80
2021/05/07 09:10:03;;;;;;;2.95;1.77;;;;;;;13.56;53.26;92321.67;1823068;77;21341;-81
2021/05/07 09:12:37;;;;;;;3.87;2.27;;;;;;;13.65;53.12;92321.60;1837566;78;21170;-79
2021/05/07 09:15:07;;;;;;;2.83;2.02;;;;;;;13.72;52.56;92326.83;1840684;77;21139;-80
2021/05/07 09:17:37;;;;;;;3.45;1.92;;;;;;;13.75;52.71;92313.66;1834806;77;21507;-78
2021/05/07 09:20:13;;;;;;;4.17;1.98;;;;;;;13.66;52.47;92322.55;1794452;79;21160;-79
2021/05/07 09:22:42;;;;;;;3.33;2.25;;;;;;;13.63;52.96;92316.59;1837305;78;21550;-79
2021/05/07 09:25:17;;;;;;;3.42;2.05;;;;;;;13.72;52.85;92305.73;1836653;77;21167;-81
2021/05/07 09:27:45;;;;;;;2.83;2.10;;;;;;;13.73;53.27;92306.52;1837478;77;21172;-79
2021/05/07 09:30:23;;;;;;;3.80;2.25;;;;;;;13.70;52.70;92309.53;1837096;77;21537;-79
2021/05/07 09:32:52;;;;;;;2.47;2.15;;;;;;;13.59;52.24;92300.32;1836456;78;21708;-82
2021/05/07 09:35:20;;;;;;;6.20;3.00;;;;;;;13.49;53.25;92304.16;1836496;78;21413;-80
2021/05/07 09:37:48;;;;;;;5.75;2.40;;;;;;;13.49;53.38;92315.08;1797186;78;21176;-78
2021/05/07 09:40:18;;;;;;;2.83;2.27;;;;;;;13.42;53.37;92315.91;1826373;78;21432;-79
2021/05/07 09:42:46;;;;;;;2.47;2.12;;;;;;;13.26;53.21;92317.58;1840831;78;21091;-78
2021/05/07 09:45:24;;;;;;;3.47;2.40;;;;;;;13.02;53.39;92328.65;1841678;77;21111;-77
2021/05/07 09:47:53;;;;;;;3.52;3.25;;;;;;;12.76;53.67;92332.72;1836916;78;22499;-81
2021/05/07 09:50:30;;;;;;;3.75;2.35;;;;;;;12.50;54.85;92337.97;1836695;78;21182;-82
2021/05/07 09:53:21;;;;;;;4.42;2.58;;;;;;;12.33;55.33;92338.02;1799383;79;21081;-84
2021/05/07 09:56:04;;;;;;;4.50;2.52;;;;;;;12.20;56.01;92355.55;1839644;77;21173;-80
2021/05/07 09:58:31;;;;;;;3.55;2.37;;;;;;;12.00;57.10;92347.48;1839607;77;21197;-80
2021/05/07 10:01:01;;;;;;;2.33;2.12;;;;;;;11.81;57.88;92341.73;1813787;77;21803;-80
2021/05/07 10:03:30;;;;;;;4.22;2.45;;;;;;;11.65;59.75;92352.03;1751135;79;21654;-81
2021/05/07 10:05:57;;;;;;;3.00;2.55;;;;;;;11.50;60.19;92356.91;1811879;78;21253;-78
2021/05/07 10:08:28;;;;;;;3.37;2.40;;;;;;;11.40;61.63;92361.43;1835881;78;21160;-79
2021/05/07 10:10:58;;;;;;;5.25;2.33;;;;;;;11.35;61.30;92417.71;1798960;78;21181;-76
2021/05/07 10:13:28;;;;;;;2.77;2.37;;;;;;;11.22;60.63;92375.45;1830371;78;21370;-76
2021/05/07 10:16:06;;;;;;;2.33;2.05;;;;;;;11.12;62.23;92369.05;1838765;77;21182;-80
2021/05/07 10:18:34;;;;;;;2.30;1.90;;;;;;;11.10;64.05;92355.12;1835789;78;21206;-77
2021/05/07 10:21:05;;;;;;;2.60;1.85;;;;;;;11.07;64.77;92368.80;1836204;78;21266;-81
2021/05/07 10:23:34;;;;;;;2.52;2.27;;;;;;;11.02;65.59;92378.80;1836965;78;21166;-78
2021/05/07 10:26:09;;;;;;;2.10;1.90;;;;;;;10.95;65.78;92374.31;1838015;77;21427;-80
2021/05/07 10:28:48;;;;;;;3.95;1.77;;;;;;;10.97;67.94;92376.59;1804256;78;21659;-81
2021/05/07 10:31:17;;;;;;;5.87;3.72;;;;;;;10.97;66.29;92376.59;1793530;78;22045;-80
2021/05/07 10:34:01;;;;;;;3.85;2.45;;;;;;;11.01;67.18;92377.28;1810723;77;21188;-80
2021/05/07 10:36:39;;;;;;;;;;;;;;;11.01;67.36;92372.60;1823270;78;21216;-80
2021/05/07 10:39:28;;;;;;;2.67;1.77;;;;;;;10.95;69.42;92383.83;1801533;78;21202;-76
2021/05/07 10:42:00;;;;;;;2.85;1.98;;;;;;;10.97;67.94;92380.67;1841634;77;21141;-76
2021/05/07 10:44:30;;;;;;;1.80;1.62;;;;;;;10.98;70.06;92379.48;1814586;78;21161;-82
2021/05/07 10:47:08;;;;;;;4.17;1.60;;;;;;;10.92;67.72;92380.59;1778305;79;21219;-81
2021/05/07 10:49:45;;;;;;;5.75;2.45;;;;;;;10.83;68.46;92384.46;1827631;78;21165;-80
2021/05/07 10:52:14;;;;;;;2.30;2.08;;;;;;;10.75;69.59;92381.13;1837677;77;22160;-80
2021/05/07 10:54:54;;;;;;;4.42;2.52;;;;;;;10.71;71.30;92395.39;1836209;77;21214;-81
2021/05/07 10:57:23;;;;;;;4.20;2.58;;;;;;;10.61;69.77;92388.24;1835217;78;21289;-77
2021/05/07 10:59:54;;;;;;;3.33;2.52;;;;;;;10.56;70.66;92392.80;1836756;78;21716;-81
2021/05/07 11:02:22;;;;;;;2.00;1.80;;;;;;;10.53;72.25;92379.47;1804334;79;21667;-82
2021/05/07 11:04:49;;;;;;;5.05;3.00;;;;;;;10.54;72.92;92387.79;1800526;78;21486;-82
2021/05/07 11:07:32;;;;;;;3.35;2.08;;;;;;;10.51;71.47;92389.98;1798122;78;21105;-78
2021/05/07 11:10:09;;;;;;;3.42;2.52;;;;;;;10.41;72.15;92387.64;1817893;78;21070;-78
2021/05/07 11:12:39;;;;;;;3.17;2.65;;;;;;;10.33;73.49;92382.17;1840825;77;21479;-84
2021/05/07 11:15:17;;;;;;;2.80;2.00;;;;;;;10.33;73.34;92391.69;1836653;78;21604;-81
2021/05/07 11:17:46;;;;;;;5.28;2.83;;;;;;;10.27;71.37;92390.66;1837245;78;21419;-82
2021/05/07 11:20:14;;;;;;;7.65;3.45;;;;;;;10.15;73.21;92381.13;1795732;77;21223;-80
2021/05/07 11:22:41;;;;;;;4.55;2.92;;;;;;;10.16;75.28;92406.36;1794773;78;21152;-81
2021/05/07 11:25:10;;;;;;;2.42;1.90;;;;;;;10.14;74.50;92393.17;1813324;78;21169;-80
2021/05/07 11:27:38;;;;;;;1.90;1.32;;;;;;;10.15;73.69;92395.30;1802475;79;21200;-83
2021/05/07 11:30:11;;;;;;;1.82;1.72;;;;;;;10.12;73.36;92395.56;1779613;78;21806;-83
2021/05/07 11:32:37;;;;;;;2.10;1.60;;;;;;;10.07;74.71;92385.16;1837248;78;21150;-81
2021/05/07 11:35:11;;;;;;;2.45;1.67;;;;;;;10.03;74.11;92399.40;1838008;77;21166;-79
2021/05/07 11:37:41;;;;;;;1.77;1.67;;;;;;;10.00;74.81;92394.03;1813619;78;21160;-77
2021/05/07 11:40:14;;;;;;;2.30;2.10;;;;;;;9.95;75.30;92389.26;1799210;78;21187;-78
2021/05/07 11:42:43;;;;;;;3.55;2.70;;;;;;;9.95;75.48;92384.42;1797071;78;21362;-83
2021/05/07 11:45:20;;;;;;;4.33;2.75;;;;;;;9.96;75.88;92389.42;1795692;78;21172;-83
2021/05/07 11:47:48;;;;;;;3.87;3.00;;;;;;;9.96;76.69;92387.30;1837652;78;21141;-84